Weather at Flying B Airport

Public forecast

Using degrees Fahrenheit for public forecast. Weather courtesy of forecast.io.

Closest aviation weather report (METAR) to Flying B Airport

Closest report is Gray Army Air Field, 12.1 nm (22.5 km) N.

2024/06/14 13:55 (retrieved 44 minutes ago)

KGRF 141355Z AUTO 15006KT 10SM FEW055 11/06 A3015 RMK AO2 SLP213 T01050064

Closest aviation forecast (TAF) to Flying B Airport

Closest forecast is Gray Army Air Field, 12.1 nm (22.5 km) N.

2024/06/14 13:00 (retrieved 2 hours ago)

TAF KGRF 141300Z 1413/1519 13006KT 9999 FEW020 QNH3013INS BECMG 1414/1415 13006KT 9999 BKN015 QNH3012INS BECMG 1418/1419 20010G15KT 9999 VCSH FEW020 BKN025 QNH3006INS TEMPO 1419/1424 9000 -SHRA BKN020 BECMG 1502/1503 13006KT 9999 NSW BKN035 QNH3004INS BECMG 1511/1512 22012G18KT 9000 -SHRA BKN020 QNH3005INS TEMPO 1513/1515 6000 -SHRA OVC012 610505 TX17/1500Z TN05/1413Z